sensor_id;sensor_type;location;lat;lon;timestamp;pressure;altitude;pressure_sealevel;temperature;humidity
64675;BME280;51090;51.512;11.332;2023-02-22T00:01:23;99466.63;;;12.97;nan
64675;BME280;51090;51.512;11.332;2023-02-22T00:04:07;99477.31;;;13.03;nan
64675;BME280;51090;51.512;11.332;2023-02-22T00:06:34;99476.91;;;13.06;nan
64675;BME280;51090;51.512;11.332;2023-02-22T00:09:00;99485.31;;;13.03;nan
64675;BME280;51090;51.512;11.332;2023-02-22T00:11:27;99468.69;;;13.01;nan
64675;BME280;51090;51.512;11.332;2023-02-22T00:13:53;99479.56;;;13.06;nan
64675;BME280;51090;51.512;11.332;2023-02-22T00:16:23;99471.38;;;13.01;nan
64675;BME280;51090;51.512;11.332;2023-02-22T00:18:49;99468.91;;;13.00;nan
64675;BME280;51090;51.512;11.332;2023-02-22T00:21:16;99468.25;;;12.91;nan
64675;BME280;51090;51.512;11.332;2023-02-22T00:23:45;99467.47;;;12.97;nan
64675;BME280;51090;51.512;11.332;2023-02-22T00:26:17;99462.94;;;12.91;nan
64675;BME280;51090;51.512;11.332;2023-02-22T00:28:46;99474.63;;;12.97;nan
64675;BME280;51090;51.512;11.332;2023-02-22T00:31:11;99467.78;;;12.74;nan
64675;BME280;51090;51.512;11.332;2023-02-22T00:33:38;99462.72;;;12.79;nan
64675;BME280;51090;51.512;11.332;2023-02-22T00:36:05;99465.31;;;12.73;nan
64675;BME280;51090;51.512;11.332;2023-02-22T00:38:30;99467.34;;;12.64;nan
64675;BME280;51090;51.512;11.332;2023-02-22T00:40:56;99460.56;;;12.61;nan
64675;BME280;51090;51.512;11.332;2023-02-22T00:43:22;99463.84;;;12.63;nan
64675;BME280;51090;51.512;11.332;2023-02-22T00:45:49;99461.75;;;12.52;nan
64675;BME280;51090;51.512;11.332;2023-02-22T00:48:15;99454.34;;;12.41;nan
64675;BME280;51090;51.512;11.332;2023-02-22T00:50:41;99447.91;;;12.29;nan
64675;BME280;51090;51.512;11.332;2023-02-22T00:53:06;99448.50;;;12.24;nan
64675;BME280;51090;51.512;11.332;2023-02-22T00:55:35;99452.13;;;12.16;nan
64675;BME280;51090;51.512;11.332;2023-02-22T00:58:03;99445.06;;;12.02;nan
64675;BME280;51090;51.512;11.332;2023-02-22T01:00:37;99446.72;;;12.03;nan
64675;BME280;51090;51.512;11.332;2023-02-22T01:03:08;99448.69;;;11.94;nan
64675;BME280;51090;51.512;11.332;2023-02-22T01:05:35;99436.72;;;11.84;nan
64675;BME280;51090;51.512;11.332;2023-02-22T01:08:04;99436.09;;;11.82;nan
64675;BME280;51090;51.512;11.332;2023-02-22T01:10:34;99440.16;;;11.77;nan
64675;BME280;51090;51.512;11.332;2023-02-22T01:13:01;99443.63;;;11.78;nan
64675;BME280;51090;51.512;11.332;2023-02-22T01:15:33;99440.31;;;11.69;nan
64675;BME280;51090;51.512;11.332;2023-02-22T01:17:59;99438.16;;;11.58;nan
64675;BME280;51090;51.512;11.332;2023-02-22T01:20:26;99441.03;;;11.57;nan
64675;BME280;51090;51.512;11.332;2023-02-22T01:22:56;99436.91;;;11.54;nan
64675;BME280;51090;51.512;11.332;2023-02-22T01:25:27;99432.34;;;11.48;nan
64675;BME280;51090;51.512;11.332;2023-02-22T01:27:54;99434.31;;;11.39;nan
64675;BME280;51090;51.512;11.332;2023-02-22T01:30:25;99434.19;;;11.47;nan
64675;BME280;51090;51.512;11.332;2023-02-22T01:32:52;99436.78;;;11.41;nan
64675;BME280;51090;51.512;11.332;2023-02-22T01:35:22;99427.00;;;11.41;nan
64675;BME280;51090;51.512;11.332;2023-02-22T01:37:48;99432.06;;;11.36;nan
64675;BME280;51090;51.512;11.332;2023-02-22T01:40:22;99432.09;;;11.43;nan
64675;BME280;51090;51.512;11.332;2023-02-22T01:42:56;99432.94;;;11.43;nan
64675;BME280;51090;51.512;11.332;2023-02-22T01:48:12;99414.97;;;11.45;nan
64675;BME280;51090;51.512;11.332;2023-02-22T01:51:06;99414.97;;;11.45;nan
64675;BME280;51090;51.512;11.332;2023-02-22T01:53:40;99415.34;;;11.42;nan
64675;BME280;51090;51.512;11.332;2023-02-22T01:56:10;99418.31;;;11.32;nan
64675;BME280;51090;51.512;11.332;2023-02-22T01:58:40;99416.25;;;11.28;nan
64675;BME280;51090;51.512;11.332;2023-02-22T02:01:07;99415.75;;;11.18;nan
64675;BME280;51090;51.512;11.332;2023-02-22T02:03:37;99416.75;;;11.17;nan
64675;BME280;51090;51.512;11.332;2023-02-22T02:06:07;99414.91;;;11.17;nan
64675;BME280;51090;51.512;11.332;2023-02-22T02:11:35;99406.63;;;11.05;nan
64675;BME280;51090;51.512;11.332;2023-02-22T02:14:07;99413.84;;;11.11;nan
64675;BME280;51090;51.512;11.332;2023-02-22T02:16:42;99412.72;;;11.21;nan
64675;BME280;51090;51.512;11.332;2023-02-22T02:25:17;99403.97;;;11.48;nan
64675;BME280;51090;51.512;11.332;2023-02-22T02:28:07;99408.13;;;11.58;nan
64675;BME280;51090;51.512;11.332;2023-02-22T02:34:03;99406.84;;;11.75;nan
64675;BME280;51090;51.512;11.332;2023-02-22T02:36:43;99400.31;;;11.77;nan
64675;BME280;51090;51.512;11.332;2023-02-22T02:39:53;99395.25;;;11.83;nan
64675;BME280;51090;51.512;11.332;2023-02-22T02:42:27;99400.94;;;11.80;nan
64675;BME280;51090;51.512;11.332;2023-02-22T02:45:07;99373.69;;;11.71;nan
64675;BME280;51090;51.512;11.332;2023-02-22T02:47:43;99402.81;;;11.86;nan
64675;BME280;51090;51.512;11.332;2023-02-22T02:50:22;99392.84;;;11.88;nan
64675;BME280;51090;51.512;11.332;2023-02-22T02:52:53;99398.81;;;11.90;nan
64675;BME280;51090;51.512;11.332;2023-02-22T02:55:20;99395.88;;;11.85;nan
64675;BME280;51090;51.512;11.332;2023-02-22T02:57:45;99387.06;;;11.84;nan
64675;BME280;51090;51.512;11.332;2023-02-22T03:00:17;99387.34;;;11.89;nan
64675;BME280;51090;51.512;11.332;2023-02-22T03:03:15;99390.38;;;11.86;nan
64675;BME280;51090;51.512;11.332;2023-02-22T03:06:05;99391.78;;;11.82;nan
64675;BME280;51090;51.512;11.332;2023-02-22T03:11:24;99387.91;;;11.85;nan
64675;BME280;51090;51.512;11.332;2023-02-22T03:14:23;99373.78;;;11.84;nan
64675;BME280;51090;51.512;11.332;2023-02-22T03:17:15;99382.97;;;11.82;nan
64675;BME280;51090;51.512;11.332;2023-02-22T03:19:57;99382.13;;;11.74;nan
64675;BME280;51090;51.512;11.332;2023-02-22T03:22:47;99376.97;;;11.73;nan
64675;BME280;51090;51.512;11.332;2023-02-22T03:25:27;99377.78;;;11.73;nan
64675;BME280;51090;51.512;11.332;2023-02-22T03:27:58;99372.47;;;11.73;nan
64675;BME280;51090;51.512;11.332;2023-02-22T03:30:51;99379.31;;;11.83;nan
64675;BME280;51090;51.512;11.332;2023-02-22T03:36:18;99381.72;;;11.77;nan
64675;BME280;51090;51.512;11.332;2023-02-22T03:38:46;99370.84;;;11.72;nan
64675;BME280;51090;51.512;11.332;2023-02-22T03:41:17;99370.47;;;11.75;nan
64675;BME280;51090;51.512;11.332;2023-02-22T03:43:53;99366.41;;;11.80;nan
64675;BME280;51090;51.512;11.332;2023-02-22T03:46:22;99372.97;;;11.84;nan
64675;BME280;51090;51.512;11.332;2023-02-22T03:48:53;99374.00;;;11.83;nan
64675;BME280;51090;51.512;11.332;2023-02-22T03:51:22;99371.13;;;11.84;nan
64675;BME280;51090;51.512;11.332;2023-02-22T03:53:49;99371.50;;;11.81;nan
64675;BME280;51090;51.512;11.332;2023-02-22T03:56:27;99375.50;;;11.92;nan
64675;BME280;51090;51.512;11.332;2023-02-22T03:59:07;99368.53;;;11.91;nan
64675;BME280;51090;51.512;11.332;2023-02-22T04:01:34;99370.31;;;11.84;nan
64675;BME280;51090;51.512;11.332;2023-02-22T04:04:00;99367.66;;;11.84;nan
64675;BME280;51090;51.512;11.332;2023-02-22T04:06:27;99367.16;;;11.95;nan
64675;BME280;51090;51.512;11.332;2023-02-22T04:08:53;99362.34;;;11.84;nan
64675;BME280;51090;51.512;11.332;2023-02-22T04:11:18;99366.41;;;11.80;nan
64675;BME280;51090;51.512;11.332;2023-02-22T04:13:44;99370.06;;;11.78;nan
64675;BME280;51090;51.512;11.332;2023-02-22T04:16:10;99364.97;;;11.77;nan
64675;BME280;51090;51.512;11.332;2023-02-22T04:18:35;99364.75;;;11.78;nan
64675;BME280;51090;51.512;11.332;2023-02-22T04:21:01;99361.09;;;11.80;nan
64675;BME280;51090;51.512;11.332;2023-02-22T04:23:27;99359.03;;;11.82;nan
64675;BME280;51090;51.512;11.332;2023-02-22T04:25:53;99364.34;;;11.82;nan
64675;BME280;51090;51.512;11.332;2023-02-22T04:28:19;99359.50;;;11.85;nan
64675;BME280;51090;51.512;11.332;2023-02-22T04:30:45;99355.56;;;11.81;nan
64675;BME280;51090;51.512;11.332;2023-02-22T04:33:11;99351.53;;;11.85;nan
64675;BME280;51090;51.512;11.332;2023-02-22T04:35:37;99350.72;;;11.85;nan
64675;BME280;51090;51.512;11.332;2023-02-22T04:38:03;99348.50;;;11.88;nan
64675;BME280;51090;51.512;11.332;2023-02-22T04:40:30;99346.47;;;11.90;nan
64675;BME280;51090;51.512;11.332;2023-02-22T04:42:56;99342.38;;;11.88;nan
64675;BME280;51090;51.512;11.332;2023-02-22T04:45:21;99350.97;;;11.90;nan
64675;BME280;51090;51.512;11.332;2023-02-22T04:47:47;99337.88;;;11.88;nan
64675;BME280;51090;51.512;11.332;2023-02-22T04:50:14;99343.25;;;11.95;nan
64675;BME280;51090;51.512;11.332;2023-02-22T04:52:40;99341.78;;;11.92;nan
64675;BME280;51090;51.512;11.332;2023-02-22T04:55:06;99339.56;;;11.96;nan
64675;BME280;51090;51.512;11.332;2023-02-22T04:57:32;99343.84;;;11.97;nan
64675;BME280;51090;51.512;11.332;2023-02-22T04:59:58;99343.25;;;11.95;nan
64675;BME280;51090;51.512;11.332;2023-02-22T05:02:24;99340.19;;;11.98;nan
64675;BME280;51090;51.512;11.332;2023-02-22T05:04:49;99342.22;;;11.96;nan
64675;BME280;51090;51.512;11.332;2023-02-22T05:07:16;99336.50;;;11.99;nan
64675;BME280;51090;51.512;11.332;2023-02-22T05:09:42;99341.47;;;12.09;nan
64675;BME280;51090;51.512;11.332;2023-02-22T05:12:08;99329.78;;;12.03;nan
64675;BME280;51090;51.512;11.332;2023-02-22T05:14:34;99332.22;;;12.05;nan
64675;BME280;51090;51.512;11.332;2023-02-22T05:17:01;99330.41;;;12.05;nan
64675;BME280;51090;51.512;11.332;2023-02-22T05:19:27;99328.13;;;12.02;nan
64675;BME280;51090;51.512;11.332;2023-02-22T05:21:53;99329.56;;;12.05;nan
64675;BME280;51090;51.512;11.332;2023-02-22T05:24:21;99328.75;;;12.04;nan
64675;BME280;51090;51.512;11.332;2023-02-22T05:26:46;99322.00;;;12.02;nan
64675;BME280;51090;51.512;11.332;2023-02-22T05:29:12;99331.81;;;12.01;nan
64675;BME280;51090;51.512;11.332;2023-02-22T05:31:38;99327.31;;;12.02;nan
64675;BME280;51090;51.512;11.332;2023-02-22T05:34:06;99328.13;;;12.02;nan
64675;BME280;51090;51.512;11.332;2023-02-22T05:36:32;99325.25;;;11.97;nan
64675;BME280;51090;51.512;11.332;2023-02-22T05:38:57;99300.22;;;11.85;nan
64675;BME280;51090;51.512;11.332;2023-02-22T05:41:23;99309.47;;;11.89;nan
64675;BME280;51090;51.512;11.332;2023-02-22T05:43:49;99309.28;;;11.90;nan
64675;BME280;51090;51.512;11.332;2023-02-22T05:46:15;99300.00;;;11.80;nan
64675;BME280;51090;51.512;11.332;2023-02-22T05:48:41;99316.44;;;11.90;nan
64675;BME280;51090;51.512;11.332;2023-02-22T05:51:06;99316.22;;;11.91;nan
64675;BME280;51090;51.512;11.332;2023-02-22T05:53:34;99317.44;;;11.89;nan
64675;BME280;51090;51.512;11.332;2023-02-22T05:55:59;99313.78;;;11.90;nan
64675;BME280;51090;51.512;11.332;2023-02-22T05:58:25;99319.69;;;11.92;nan
64675;BME280;51090;51.512;11.332;2023-02-22T06:00:51;99317.66;;;11.94;nan
64675;BME280;51090;51.512;11.332;2023-02-22T06:03:17;99321.97;;;11.95;nan
64675;BME280;51090;51.512;11.332;2023-02-22T06:05:43;99318.72;;;11.99;nan
64675;BME280;51090;51.512;11.332;2023-02-22T06:08:09;99298.38;;;11.85;nan
64675;BME280;51090;51.512;11.332;2023-02-22T06:10:35;99326.09;;;12.04;nan
64675;BME280;51090;51.512;11.332;2023-02-22T06:13:01;99331.84;;;12.08;nan
64675;BME280;51090;51.512;11.332;2023-02-22T06:15:28;99330.59;;;12.04;nan
64675;BME280;51090;51.512;11.332;2023-02-22T06:17:55;99325.91;;;12.06;nan
64675;BME280;51090;51.512;11.332;2023-02-22T06:20:24;99323.28;;;12.12;nan
64675;BME280;51090;51.512;11.332;2023-02-22T06:22:52;99316.81;;;11.87;nan
64675;BME280;51090;51.512;11.332;2023-02-22T06:25:23;99318.25;;;11.89;nan
64675;BME280;51090;51.512;11.332;2023-02-22T06:27:49;99307.16;;;11.79;nan
64675;BME280;51090;51.512;11.332;2023-02-22T06:30:17;99318.81;;;11.85;nan
64675;BME280;51090;51.512;11.332;2023-02-22T06:32:43;99319.81;;;11.77;nan
64675;BME280;51090;51.512;11.332;2023-02-22T06:35:09;99320.81;;;11.76;nan
64675;BME280;51090;51.512;11.332;2023-02-22T06:37:35;99327.97;;;11.75;nan
64675;BME280;51090;51.512;11.332;2023-02-22T06:40:01;99322.66;;;11.75;nan
64675;BME280;51090;51.512;11.332;2023-02-22T06:42:26;99323.66;;;11.74;nan
64675;BME280;51090;51.512;11.332;2023-02-22T06:44:52;99327.97;;;11.75;nan
64675;BME280;51090;51.512;11.332;2023-02-22T06:47:18;99324.72;;;11.80;nan
64675;BME280;51090;51.512;11.332;2023-02-22T06:49:43;99332.47;;;11.82;nan
64675;BME280;51090;51.512;11.332;2023-02-22T06:52:09;99328.81;;;11.83;nan
64675;BME280;51090;51.512;11.332;2023-02-22T06:54:37;99323.50;;;11.83;nan
64675;BME280;51090;51.512;11.332;2023-02-22T06:57:03;99333.09;;;11.77;nan
64675;BME280;51090;51.512;11.332;2023-02-22T06:59:28;99327.78;;;11.84;nan
64675;BME280;51090;51.512;11.332;2023-02-22T07:01:54;99328.88;;;11.89;nan
64675;BME280;51090;51.512;11.332;2023-02-22T07:04:20;99324.00;;;11.93;nan
64675;BME280;51090;51.512;11.332;2023-02-22T07:06:48;99327.31;;;12.02;nan
64675;BME280;51090;51.512;11.332;2023-02-22T07:09:15;99322.84;;;12.09;nan
64675;BME280;51090;51.512;11.332;2023-02-22T07:11:42;99315.50;;;12.11;nan
64675;BME280;51090;51.512;11.332;2023-02-22T07:14:08;99324.34;;;12.18;nan
64675;BME280;51090;51.512;11.332;2023-02-22T07:16:34;99320.03;;;12.17;nan
64675;BME280;51090;51.512;11.332;2023-02-22T07:19:00;99322.72;;;12.30;nan
64675;BME280;51090;51.512;11.332;2023-02-22T07:21:27;99330.56;;;12.45;nan
64675;BME280;51090;51.512;11.332;2023-02-22T07:23:54;99335.09;;;12.51;nan
64675;BME280;51090;51.512;11.332;2023-02-22T07:26:22;99335.31;;;12.56;nan
64675;BME280;51090;51.512;11.332;2023-02-22T07:28:48;99327.56;;;12.61;nan
64675;BME280;51090;51.512;11.332;2023-02-22T07:31:14;99323.47;;;12.59;nan
64675;BME280;51090;51.512;11.332;2023-02-22T07:33:40;99329.41;;;12.68;nan
64675;BME280;51090;51.512;11.332;2023-02-22T07:36:06;99310.38;;;12.64;nan
64675;BME280;51090;51.512;11.332;2023-02-22T07:38:31;99332.91;;;12.81;nan
64675;BME280;51090;51.512;11.332;2023-02-22T07:40:57;99336.41;;;12.89;nan
64675;BME280;51090;51.512;11.332;2023-02-22T07:43:28;99333.75;;;13.02;nan
64675;BME280;51090;51.512;11.332;2023-02-22T07:45:57;99333.38;;;13.05;nan
64675;BME280;51090;51.512;11.332;2023-02-22T07:48:26;99321.91;;;13.11;nan
64675;BME280;51090;51.512;11.332;2023-02-22T07:50:52;99328.66;;;13.14;nan
64675;BME280;51090;51.512;11.332;2023-02-22T07:53:28;99336.28;;;13.37;nan
64675;BME280;51090;51.512;11.332;2023-02-22T07:55:59;99323.34;;;13.40;nan
64675;BME280;51090;51.512;11.332;2023-02-22T07:58:27;99333.00;;;13.55;nan
64675;BME280;51090;51.512;11.332;2023-02-22T08:00:54;99335.44;;;13.63;nan
64675;BME280;51090;51.512;11.332;2023-02-22T08:03:22;99323.50;;;13.79;nan
64675;BME280;51090;51.512;11.332;2023-02-22T08:05:52;99331.91;;;13.96;nan
64675;BME280;51090;51.512;11.332;2023-02-22T08:08:18;99323.22;;;14.07;nan
64675;BME280;51090;51.512;11.332;2023-02-22T08:10:44;99325.03;;;14.20;nan
64675;BME280;51090;51.512;11.332;2023-02-22T08:13:10;99321.94;;;14.29;nan
64675;BME280;51090;51.512;11.332;2023-02-22T08:15:39;99324.09;;;14.46;nan
64675;BME280;51090;51.512;11.332;2023-02-22T08:18:08;99323.25;;;14.58;nan
64675;BME280;51090;51.512;11.332;2023-02-22T08:20:36;99323.84;;;14.67;nan
64675;BME280;51090;51.512;11.332;2023-02-22T08:23:03;99317.41;;;14.75;nan
64675;BME280;51090;51.512;11.332;2023-02-22T08:25:29;99316.56;;;14.81;nan
64675;BME280;51090;51.512;11.332;2023-02-22T08:28:08;99319.53;;;14.98;nan
64675;BME280;51090;51.512;11.332;2023-02-22T08:30:35;99320.50;;;15.03;nan
64675;BME280;51090;51.512;11.332;2023-02-22T08:33:01;99311.63;;;15.10;nan
64675;BME280;51090;51.512;11.332;2023-02-22T08:35:29;99313.66;;;15.14;nan
64675;BME280;51090;51.512;11.332;2023-02-22T08:38:00;99313.81;;;15.19;nan
64675;BME280;51090;51.512;11.332;2023-02-22T08:40:29;99315.84;;;15.24;nan
64675;BME280;51090;51.512;11.332;2023-02-22T08:42:56;99309.06;;;15.21;nan
64675;BME280;51090;51.512;11.332;2023-02-22T08:45:22;99312.72;;;15.27;nan
64675;BME280;51090;51.512;11.332;2023-02-22T08:47:48;99306.13;;;15.30;nan
64675;BME280;51090;51.512;11.332;2023-02-22T08:50:26;99297.22;;;15.36;nan
64675;BME280;51090;51.512;11.332;2023-02-22T08:52:54;99294.72;;;15.41;nan
64675;BME280;51090;51.512;11.332;2023-02-22T08:55:25;99302.88;;;15.46;nan
64675;BME280;51090;51.512;11.332;2023-02-22T08:57:51;99294.13;;;15.39;nan
64675;BME280;51090;51.512;11.332;2023-02-22T09:00:21;99294.28;;;15.44;nan
64675;BME280;51090;51.512;11.332;2023-02-22T09:02:51;99293.91;;;15.40;nan
64675;BME280;51090;51.512;11.332;2023-02-22T09:05:18;99287.38;;;15.36;nan
64675;BME280;51090;51.512;11.332;2023-02-22T09:07:44;99302.31;;;15.44;nan
64675;BME280;51090;51.512;11.332;2023-02-22T09:10:15;99295.88;;;15.52;nan
64675;BME280;51090;51.512;11.332;2023-02-22T09:12:42;99301.28;;;15.63;nan
64675;BME280;51090;51.512;11.332;2023-02-22T09:15:08;99304.44;;;15.79;nan
64675;BME280;51090;51.512;11.332;2023-02-22T09:17:34;99304.31;;;15.92;nan
64675;BME280;51090;51.512;11.332;2023-02-22T09:20:05;99309.22;;;16.14;nan
64675;BME280;51090;51.512;11.332;2023-02-22T09:22:31;99304.44;;;16.16;nan
64675;BME280;51090;51.512;11.332;2023-02-22T09:24:57;99302.97;;;16.20;nan
64675;BME280;51090;51.512;11.332;2023-02-22T09:27:23;99303.91;;;16.25;nan
64675;BME280;51090;51.512;11.332;2023-02-22T09:29:52;99308.09;;;16.21;nan
64675;BME280;51090;51.512;11.332;2023-02-22T09:32:18;99298.41;;;16.20;nan
64675;BME280;51090;51.512;11.332;2023-02-22T09:34:45;99307.94;;;16.16;nan
64675;BME280;51090;51.512;11.332;2023-02-22T09:37:11;99299.91;;;15.98;nan
64675;BME280;51090;51.512;11.332;2023-02-22T09:39:37;99306.53;;;15.77;nan
64675;BME280;51090;51.512;11.332;2023-02-22T09:42:32;99286.75;;;15.59;nan
64675;BME280;51090;51.512;11.332;2023-02-22T09:45:16;99292.03;;;15.41;nan
64675;BME280;51090;51.512;11.332;2023-02-22T09:47:54;99285.63;;;15.23;nan
64675;BME280;51090;51.512;11.332;2023-02-22T09:50:27;99285.88;;;15.15;nan
64675;BME280;51090;51.512;11.332;2023-02-22T09:53:01;99291.06;;;15.10;nan
64675;BME280;51090;51.512;11.332;2023-02-22T09:55:41;99281.28;;;15.04;nan
64675;BME280;51090;51.512;11.332;2023-02-22T09:58:21;99268.34;;;15.01;nan
64675;BME280;51090;51.512;11.332;2023-02-22T10:00:56;99267.97;;;14.97;nan
64675;BME280;51090;51.512;11.332;2023-02-22T10:03:35;99278.44;;;14.99;nan
64675;BME280;51090;51.512;11.332;2023-02-22T10:06:12;99278.63;;;14.97;nan
64675;BME280;51090;51.512;11.332;2023-02-22T10:08:41;99265.13;;;14.92;nan
64675;BME280;51090;51.512;11.332;2023-02-22T10:11:36;99267.53;;;15.00;nan
64675;BME280;51090;51.512;11.332;2023-02-22T10:14:45;99273.25;;;15.04;nan
64675;BME280;51090;51.512;11.332;2023-02-22T10:23:32;99259.63;;;15.12;nan
64675;BME280;51090;51.512;11.332;2023-02-22T10:28:51;99255.16;;;15.06;nan
64675;BME280;51090;51.512;11.332;2023-02-22T10:31:25;99261.75;;;15.03;nan
64675;BME280;51090;51.512;11.332;2023-02-22T10:34:04;99261.81;;;15.22;nan
64675;BME280;51090;51.512;11.332;2023-02-22T10:36:32;99264.31;;;15.17;nan
64675;BME280;51090;51.512;11.332;2023-02-22T10:39:31;99259.41;;;15.39;nan
64675;BME280;51090;51.512;11.332;2023-02-22T10:42:04;99259.09;;;15.47;nan
64675;BME280;51090;51.512;11.332;2023-02-22T10:44:35;99260.78;;;15.85;nan
64675;BME280;51090;51.512;11.332;2023-02-22T10:47:05;99265.06;;;16.23;nan
64675;BME280;51090;51.512;11.332;2023-02-22T10:49:41;99251.13;;;16.63;nan
64675;BME280;51090;51.512;11.332;2023-02-22T10:52:26;99247.16;;;16.95;nan
64675;BME280;51090;51.512;11.332;2023-02-22T10:54:57;99247.03;;;17.02;nan
64675;BME280;51090;51.512;11.332;2023-02-22T10:57:36;99242.47;;;17.03;nan
64675;BME280;51090;51.512;11.332;2023-02-22T11:00:34;99237.34;;;16.78;nan
64675;BME280;51090;51.512;11.332;2023-02-22T11:03:14;99247.66;;;16.74;nan
64675;BME280;51090;51.512;11.332;2023-02-22T11:05:42;99233.16;;;16.82;nan
64675;BME280;51090;51.512;11.332;2023-02-22T11:10:54;99229.91;;;17.38;nan
64675;BME280;51090;51.512;11.332;2023-02-22T11:13:27;99231.16;;;17.59;nan
64675;BME280;51090;51.512;11.332;2023-02-22T11:16:00;99220.91;;;17.68;nan
64675;BME280;51090;51.512;11.332;2023-02-22T11:18:32;99223.47;;;17.63;nan
64675;BME280;51090;51.512;11.332;2023-02-22T11:21:07;99208.78;;;17.54;nan
64675;BME280;51090;51.512;11.332;2023-02-22T11:23:38;99208.94;;;17.47;nan
64675;BME280;51090;51.512;11.332;2023-02-22T11:26:12;99183.75;;;17.36;nan
64675;BME280;51090;51.512;11.332;2023-02-22T11:28:50;99207.88;;;17.48;nan
64675;BME280;51090;51.512;11.332;2023-02-22T11:31:27;99206.69;;;17.44;nan
64675;BME280;51090;51.512;11.332;2023-02-22T11:34:00;99201.22;;;17.51;nan
64675;BME280;51090;51.512;11.332;2023-02-22T11:39:05;99198.22;;;17.47;nan
64675;BME280;51090;51.512;11.332;2023-02-22T11:41:44;99195.97;;;17.44;nan
64675;BME280;51090;51.512;11.332;2023-02-22T11:44:29;99189.91;;;17.60;nan
64675;BME280;51090;51.512;11.332;2023-02-22T11:46:59;99169.88;;;17.51;nan
64675;BME280;51090;51.512;11.332;2023-02-22T11:49:35;99160.44;;;17.49;nan
64675;BME280;51090;51.512;11.332;2023-02-22T11:52:24;99180.47;;;17.58;nan
64675;BME280;51090;51.512;11.332;2023-02-22T11:55:22;99171.72;;;17.62;nan
64675;BME280;51090;51.512;11.332;2023-02-22T12:06:20;99164.72;;;17.61;nan
64675;BME280;51090;51.512;11.332;2023-02-22T12:09:12;99165.72;;;17.72;nan
64675;BME280;51090;51.512;11.332;2023-02-22T12:12:11;99167.81;;;17.94;nan
64675;BME280;51090;51.512;11.332;2023-02-22T12:18:10;99158.94;;;17.93;nan
64675;BME280;51090;51.512;11.332;2023-02-22T12:20:45;99157.88;;;17.94;nan
64675;BME280;51090;51.512;11.332;2023-02-22T12:26:17;99151.91;;;18.04;nan
64675;BME280;51090;51.512;11.332;2023-02-22T12:29:01;99158.97;;;18.10;nan
64675;BME280;51090;51.512;11.332;2023-02-22T12:31:37;99157.59;;;18.08;nan
64675;BME280;51090;51.512;11.332;2023-02-22T12:36:50;99151.22;;;17.97;nan
64675;BME280;51090;51.512;11.332;2023-02-22T12:45:33;99134.72;;;17.76;nan
64675;BME280;51090;51.512;11.332;2023-02-22T12:50:47;99136.97;;;17.68;nan
64675;BME280;51090;51.512;11.332;2023-02-22T12:53:30;99118.56;;;17.59;nan
64675;BME280;51090;51.512;11.332;2023-02-22T12:56:18;99138.09;;;17.72;nan
64675;BME280;51090;51.512;11.332;2023-02-22T12:59:00;99138.59;;;17.69;nan
64675;BME280;51090;51.512;11.332;2023-02-22T13:01:38;99130.53;;;17.69;nan
64675;BME280;51090;51.512;11.332;2023-02-22T13:04:05;99135.81;;;17.63;nan
64675;BME280;51090;51.512;11.332;2023-02-22T13:07:24;99134.25;;;17.79;nan
64675;BME280;51090;51.512;11.332;2023-02-22T13:10:38;99132.16;;;17.81;nan
64675;BME280;51090;51.512;11.332;2023-02-22T13:16:52;99125.72;;;17.82;nan
64675;BME280;51090;51.512;11.332;2023-02-22T13:19:41;99122.13;;;17.77;nan
64675;BME280;51090;51.512;11.332;2023-02-22T13:22:19;99129.34;;;17.76;nan
64675;BME280;51090;51.512;11.332;2023-02-22T13:25:32;99123.75;;;17.78;nan
64675;BME280;51090;51.512;11.332;2023-02-22T13:31:34;99117.22;;;17.74;nan
64675;BME280;51090;51.512;11.332;2023-02-22T13:34:21;99128.75;;;17.86;nan
64675;BME280;51090;51.512;11.332;2023-02-22T13:43:13;99115.94;;;17.76;nan
64675;BME280;51090;51.512;11.332;2023-02-22T13:46:15;99119.19;;;17.78;nan
64675;BME280;51090;51.512;11.332;2023-02-22T13:49:26;99110.69;;;17.81;nan
64675;BME280;51090;51.512;11.332;2023-02-22T13:52:25;99109.09;;;17.80;nan
64675;BME280;51090;51.512;11.332;2023-02-22T13:55:00;99117.00;;;17.75;nan
64675;BME280;51090;51.512;11.332;2023-02-22T13:57:36;99103.25;;;17.72;nan
64675;BME280;51090;51.512;11.332;2023-02-22T14:02:59;99104.03;;;17.84;nan
64675;BME280;51090;51.512;11.332;2023-02-22T14:10:55;99099.84;;;17.76;nan
64675;BME280;51090;51.512;11.332;2023-02-22T14:13:28;99110.19;;;17.96;nan
64675;BME280;51090;51.512;11.332;2023-02-22T14:18:43;99088.28;;;17.88;nan
64675;BME280;51090;51.512;11.332;2023-02-22T14:21:11;99093.59;;;17.71;nan
64675;BME280;51090;51.512;11.332;2023-02-22T14:23:43;99094.97;;;17.73;nan
64675;BME280;51090;51.512;11.332;2023-02-22T14:31:23;99089.03;;;17.71;nan
64675;BME280;51090;51.512;11.332;2023-02-22T14:33:59;99097.66;;;17.73;nan
64675;BME280;51090;51.512;11.332;2023-02-22T14:36:32;99079.59;;;17.69;nan
64675;BME280;51090;51.512;11.332;2023-02-22T14:39:17;99093.91;;;17.74;nan
64675;BME280;51090;51.512;11.332;2023-02-22T14:41:54;99092.41;;;17.67;nan
64675;BME280;51090;51.512;11.332;2023-02-22T14:44:35;99084.63;;;17.65;nan
64675;BME280;51090;51.512;11.332;2023-02-22T14:47:05;99087.22;;;17.60;nan
64675;BME280;51090;51.512;11.332;2023-02-22T14:49:37;99086.06;;;17.56;nan
64675;BME280;51090;51.512;11.332;2023-02-22T14:52:17;99096.59;;;18.03;nan
64675;BME280;51090;51.512;11.332;2023-02-22T14:55:15;99093.91;;;17.74;nan
64675;BME280;51090;51.512;11.332;2023-02-22T14:58:04;99094.94;;;17.85;nan
64675;BME280;51090;51.512;11.332;2023-02-22T15:00:45;99091.44;;;17.84;nan
64675;BME280;51090;51.512;11.332;2023-02-22T15:03:31;99082.50;;;17.67;nan
64675;BME280;51090;51.512;11.332;2023-02-22T15:06:19;99089.75;;;17.67;nan
64675;BME280;51090;51.512;11.332;2023-02-22T15:08:47;99087.38;;;17.41;nan